sensor_id;sensor_type;location;lat;lon;timestamp;P1;durP1;ratioP1;P2;durP2;ratioP2
14681;SDS011;7429;52.498;13.480;2023-12-04T00:02:09;40.17;;;20.93;;
14681;SDS011;7429;52.498;13.480;2023-12-04T00:05:12;36.20;;;19.53;;
14681;SDS011;7429;52.498;13.480;2023-12-04T00:08:19;43.47;;;21.53;;
14681;SDS011;7429;52.498;13.480;2023-12-04T00:11:22;38.33;;;19.83;;
14681;SDS011;7429;52.498;13.480;2023-12-04T00:14:25;38.40;;;19.67;;
14681;SDS011;7429;52.498;13.480;2023-12-04T00:17:28;44.40;;;20.70;;
14681;SDS011;7429;52.498;13.480;2023-12-04T00:20:35;35.47;;;19.30;;
14681;SDS011;7429;52.498;13.480;2023-12-04T00:23:39;37.27;;;20.07;;
14681;SDS011;7429;52.498;13.480;2023-12-04T00:26:42;36.23;;;20.03;;
14681;SDS011;7429;52.498;13.480;2023-12-04T00:29:48;41.40;;;20.50;;
14681;SDS011;7429;52.498;13.480;2023-12-04T00:32:51;40.97;;;21.47;;
14681;SDS011;7429;52.498;13.480;2023-12-04T00:35:54;41.07;;;21.57;;
14681;SDS011;7429;52.498;13.480;2023-12-04T00:38:58;39.73;;;20.53;;
14681;SDS011;7429;52.498;13.480;2023-12-04T00:42:01;40.27;;;20.57;;
14681;SDS011;7429;52.498;13.480;2023-12-04T00:45:05;38.93;;;20.30;;
14681;SDS011;7429;52.498;13.480;2023-12-04T00:48:10;40.17;;;21.07;;
14681;SDS011;7429;52.498;13.480;2023-12-04T00:51:14;38.10;;;20.40;;
14681;SDS011;7429;52.498;13.480;2023-12-04T00:54:18;43.67;;;20.30;;
14681;SDS011;7429;52.498;13.480;2023-12-04T00:57:21;40.43;;;22.70;;
14681;SDS011;7429;52.498;13.480;2023-12-04T01:00:27;37.70;;;19.93;;
14681;SDS011;7429;52.498;13.480;2023-12-04T01:03:30;39.83;;;20.60;;
14681;SDS011;7429;52.498;13.480;2023-12-04T01:06:35;43.63;;;21.17;;
14681;SDS011;7429;52.498;13.480;2023-12-04T01:09:42;44.03;;;21.67;;
14681;SDS011;7429;52.498;13.480;2023-12-04T01:12:45;39.93;;;20.53;;
14681;SDS011;7429;52.498;13.480;2023-12-04T01:15:48;41.80;;;20.03;;
14681;SDS011;7429;52.498;13.480;2023-12-04T01:18:52;40.73;;;19.67;;
14681;SDS011;7429;52.498;13.480;2023-12-04T01:21:57;43.13;;;21.57;;
14681;SDS011;7429;52.498;13.480;2023-12-04T01:25:01;45.10;;;22.60;;
14681;SDS011;7429;52.498;13.480;2023-12-04T01:28:06;40.07;;;21.67;;
14681;SDS011;7429;52.498;13.480;2023-12-04T01:31:11;50.83;;;23.83;;
14681;SDS011;7429;52.498;13.480;2023-12-04T01:34:14;49.27;;;22.20;;
14681;SDS011;7429;52.498;13.480;2023-12-04T01:37:17;39.77;;;21.07;;
14681;SDS011;7429;52.498;13.480;2023-12-04T01:40:21;37.53;;;19.77;;
14681;SDS011;7429;52.498;13.480;2023-12-04T01:43:25;41.87;;;20.83;;
14681;SDS011;7429;52.498;13.480;2023-12-04T01:46:29;42.87;;;21.40;;
14681;SDS011;7429;52.498;13.480;2023-12-04T01:49:33;43.53;;;22.03;;
14681;SDS011;7429;52.498;13.480;2023-12-04T01:52:36;46.33;;;22.27;;
14681;SDS011;7429;52.498;13.480;2023-12-04T01:55:41;45.83;;;22.30;;
14681;SDS011;7429;52.498;13.480;2023-12-04T01:58:44;42.87;;;20.57;;
14681;SDS011;7429;52.498;13.480;2023-12-04T02:01:47;40.47;;;20.97;;
14681;SDS011;7429;52.498;13.480;2023-12-04T02:04:51;43.17;;;21.37;;
14681;SDS011;7429;52.498;13.480;2023-12-04T02:07:56;43.60;;;22.40;;
14681;SDS011;7429;52.498;13.480;2023-12-04T02:11:01;43.40;;;21.60;;
14681;SDS011;7429;52.498;13.480;2023-12-04T02:14:06;46.97;;;22.60;;
14681;SDS011;7429;52.498;13.480;2023-12-04T02:17:09;43.53;;;22.17;;
14681;SDS011;7429;52.498;13.480;2023-12-04T02:20:15;43.03;;;22.03;;
14681;SDS011;7429;52.498;13.480;2023-12-04T02:23:19;46.57;;;22.90;;
14681;SDS011;7429;52.498;13.480;2023-12-04T02:26:26;48.00;;;23.50;;
14681;SDS011;7429;52.498;13.480;2023-12-04T02:29:36;44.13;;;22.33;;
14681;SDS011;7429;52.498;13.480;2023-12-04T02:32:44;41.37;;;21.03;;
14681;SDS011;7429;52.498;13.480;2023-12-04T02:35:49;43.00;;;20.93;;
14681;SDS011;7429;52.498;13.480;2023-12-04T02:38:53;46.10;;;22.90;;
14681;SDS011;7429;52.498;13.480;2023-12-04T02:41:58;53.30;;;24.43;;
14681;SDS011;7429;52.498;13.480;2023-12-04T02:45:02;43.90;;;22.80;;
14681;SDS011;7429;52.498;13.480;2023-12-04T02:48:06;43.97;;;22.10;;
14681;SDS011;7429;52.498;13.480;2023-12-04T02:51:12;43.37;;;21.87;;
14681;SDS011;7429;52.498;13.480;2023-12-04T02:54:15;49.63;;;23.93;;
14681;SDS011;7429;52.498;13.480;2023-12-04T02:57:19;47.93;;;23.80;;
14681;SDS011;7429;52.498;13.480;2023-12-04T03:00:23;47.90;;;23.53;;
14681;SDS011;7429;52.498;13.480;2023-12-04T03:03:26;41.40;;;22.07;;
14681;SDS011;7429;52.498;13.480;2023-12-04T03:06:29;41.33;;;22.57;;
14681;SDS011;7429;52.498;13.480;2023-12-04T03:09:32;44.33;;;22.33;;
14681;SDS011;7429;52.498;13.480;2023-12-04T03:12:51;44.47;;;21.47;;
14681;SDS011;7429;52.498;13.480;2023-12-04T03:15:54;44.00;;;22.57;;
14681;SDS011;7429;52.498;13.480;2023-12-04T03:18:57;49.40;;;22.73;;
14681;SDS011;7429;52.498;13.480;2023-12-04T03:22:01;45.30;;;23.63;;
14681;SDS011;7429;52.498;13.480;2023-12-04T03:25:04;43.03;;;21.53;;
14681;SDS011;7429;52.498;13.480;2023-12-04T03:28:12;52.53;;;24.77;;
14681;SDS011;7429;52.498;13.480;2023-12-04T03:31:17;53.67;;;24.00;;
14681;SDS011;7429;52.498;13.480;2023-12-04T03:34:20;43.63;;;22.80;;
14681;SDS011;7429;52.498;13.480;2023-12-04T03:37:23;47.63;;;23.17;;
14681;SDS011;7429;52.498;13.480;2023-12-04T03:40:26;47.53;;;23.43;;
14681;SDS011;7429;52.498;13.480;2023-12-04T03:43:31;45.03;;;23.20;;
14681;SDS011;7429;52.498;13.480;2023-12-04T03:46:34;44.83;;;22.17;;
14681;SDS011;7429;52.498;13.480;2023-12-04T03:49:37;43.80;;;21.83;;
14681;SDS011;7429;52.498;13.480;2023-12-04T03:52:40;40.53;;;22.30;;
14681;SDS011;7429;52.498;13.480;2023-12-04T03:55:46;40.37;;;21.60;;
14681;SDS011;7429;52.498;13.480;2023-12-04T03:58:50;42.60;;;23.00;;
14681;SDS011;7429;52.498;13.480;2023-12-04T04:01:54;39.60;;;21.50;;
14681;SDS011;7429;52.498;13.480;2023-12-04T04:04:57;44.67;;;23.37;;
14681;SDS011;7429;52.498;13.480;2023-12-04T04:08:00;45.07;;;23.30;;
14681;SDS011;7429;52.498;13.480;2023-12-04T04:11:03;42.70;;;22.23;;
14681;SDS011;7429;52.498;13.480;2023-12-04T04:14:07;42.43;;;21.77;;
14681;SDS011;7429;52.498;13.480;2023-12-04T04:17:11;42.47;;;21.80;;
14681;SDS011;7429;52.498;13.480;2023-12-04T04:20:14;39.53;;;21.47;;
14681;SDS011;7429;52.498;13.480;2023-12-04T04:23:17;41.10;;;20.83;;
14681;SDS011;7429;52.498;13.480;2023-12-04T04:26:20;44.97;;;22.53;;
14681;SDS011;7429;52.498;13.480;2023-12-04T04:29:25;38.70;;;20.50;;
14681;SDS011;7429;52.498;13.480;2023-12-04T04:32:28;41.40;;;20.57;;
14681;SDS011;7429;52.498;13.480;2023-12-04T04:35:31;40.20;;;20.27;;
14681;SDS011;7429;52.498;13.480;2023-12-04T04:38:34;42.07;;;21.60;;
14681;SDS011;7429;52.498;13.480;2023-12-04T04:41:37;40.63;;;20.07;;
14681;SDS011;7429;52.498;13.480;2023-12-04T04:44:42;40.63;;;21.37;;
14681;SDS011;7429;52.498;13.480;2023-12-04T04:47:45;39.47;;;21.00;;
14681;SDS011;7429;52.498;13.480;2023-12-04T04:50:48;44.77;;;22.53;;
14681;SDS011;7429;52.498;13.480;2023-12-04T04:53:51;42.00;;;20.87;;
14681;SDS011;7429;52.498;13.480;2023-12-04T04:56:54;40.87;;;20.97;;
14681;SDS011;7429;52.498;13.480;2023-12-04T04:59:59;45.37;;;21.07;;
14681;SDS011;7429;52.498;13.480;2023-12-04T05:03:02;44.97;;;22.87;;
14681;SDS011;7429;52.498;13.480;2023-12-04T05:06:05;43.33;;;21.60;;
14681;SDS011;7429;52.498;13.480;2023-12-04T05:09:09;42.53;;;21.87;;
14681;SDS011;7429;52.498;13.480;2023-12-04T05:12:12;40.57;;;20.93;;
14681;SDS011;7429;52.498;13.480;2023-12-04T05:15:16;39.23;;;20.90;;
14681;SDS011;7429;52.498;13.480;2023-12-04T05:18:19;42.80;;;21.30;;
14681;SDS011;7429;52.498;13.480;2023-12-04T05:21:22;42.70;;;21.67;;
14681;SDS011;7429;52.498;13.480;2023-12-04T05:24:25;35.73;;;19.93;;
14681;SDS011;7429;52.498;13.480;2023-12-04T05:27:28;41.17;;;21.20;;
14681;SDS011;7429;52.498;13.480;2023-12-04T05:30:33;40.77;;;20.33;;
14681;SDS011;7429;52.498;13.480;2023-12-04T05:33:36;38.83;;;21.00;;
14681;SDS011;7429;52.498;13.480;2023-12-04T05:36:44;36.87;;;21.53;;
14681;SDS011;7429;52.498;13.480;2023-12-04T05:39:48;36.97;;;19.60;;
14681;SDS011;7429;52.498;13.480;2023-12-04T05:42:51;41.07;;;21.17;;
14681;SDS011;7429;52.498;13.480;2023-12-04T05:45:55;44.03;;;21.93;;
14681;SDS011;7429;52.498;13.480;2023-12-04T05:48:58;39.17;;;21.07;;
14681;SDS011;7429;52.498;13.480;2023-12-04T05:52:01;37.47;;;21.07;;
14681;SDS011;7429;52.498;13.480;2023-12-04T05:55:05;35.60;;;20.97;;
14681;SDS011;7429;52.498;13.480;2023-12-04T05:58:11;43.77;;;22.70;;
14681;SDS011;7429;52.498;13.480;2023-12-04T06:01:15;45.83;;;21.13;;
14681;SDS011;7429;52.498;13.480;2023-12-04T06:04:18;43.27;;;22.27;;
14681;SDS011;7429;52.498;13.480;2023-12-04T06:07:21;40.33;;;20.83;;
14681;SDS011;7429;52.498;13.480;2023-12-04T06:10:25;39.10;;;20.07;;
14681;SDS011;7429;52.498;13.480;2023-12-04T06:13:28;43.03;;;21.07;;
14681;SDS011;7429;52.498;13.480;2023-12-04T06:16:37;38.17;;;20.63;;
14681;SDS011;7429;52.498;13.480;2023-12-04T06:19:46;38.07;;;21.17;;
14681;SDS011;7429;52.498;13.480;2023-12-04T06:22:50;42.77;;;23.20;;
14681;SDS011;7429;52.498;13.480;2023-12-04T06:25:54;42.73;;;22.17;;
14681;SDS011;7429;52.498;13.480;2023-12-04T06:28:58;41.73;;;22.07;;
14681;SDS011;7429;52.498;13.480;2023-12-04T06:32:04;41.40;;;21.40;;
14681;SDS011;7429;52.498;13.480;2023-12-04T06:35:11;44.17;;;22.57;;
14681;SDS011;7429;52.498;13.480;2023-12-04T06:38:20;44.87;;;21.73;;
14681;SDS011;7429;52.498;13.480;2023-12-04T06:41:28;41.27;;;21.53;;
14681;SDS011;7429;52.498;13.480;2023-12-04T06:44:34;40.37;;;21.10;;
14681;SDS011;7429;52.498;13.480;2023-12-04T06:47:40;39.77;;;20.40;;
14681;SDS011;7429;52.498;13.480;2023-12-04T06:50:48;37.67;;;20.67;;
14681;SDS011;7429;52.498;13.480;2023-12-04T06:53:51;43.10;;;21.93;;
14681;SDS011;7429;52.498;13.480;2023-12-04T06:56:54;37.10;;;20.43;;
14681;SDS011;7429;52.498;13.480;2023-12-04T06:59:57;48.17;;;21.63;;
14681;SDS011;7429;52.498;13.480;2023-12-04T07:03:02;39.60;;;19.63;;
14681;SDS011;7429;52.498;13.480;2023-12-04T07:06:06;39.77;;;20.03;;
14681;SDS011;7429;52.498;13.480;2023-12-04T07:09:10;40.07;;;20.83;;
14681;SDS011;7429;52.498;13.480;2023-12-04T07:12:13;39.83;;;21.07;;
14681;SDS011;7429;52.498;13.480;2023-12-04T07:15:16;39.50;;;21.33;;
14681;SDS011;7429;52.498;13.480;2023-12-04T07:18:20;39.23;;;21.40;;
14681;SDS011;7429;52.498;13.480;2023-12-04T07:21:24;39.73;;;21.93;;
14681;SDS011;7429;52.498;13.480;2023-12-04T07:24:28;40.80;;;20.70;;
14681;SDS011;7429;52.498;13.480;2023-12-04T07:27:31;38.07;;;21.67;;
14681;SDS011;7429;52.498;13.480;2023-12-04T07:30:35;40.97;;;21.23;;
14681;SDS011;7429;52.498;13.480;2023-12-04T07:33:39;42.70;;;21.77;;
14681;SDS011;7429;52.498;13.480;2023-12-04T07:36:43;38.63;;;21.53;;
14681;SDS011;7429;52.498;13.480;2023-12-04T07:39:46;37.80;;;20.73;;
14681;SDS011;7429;52.498;13.480;2023-12-04T07:42:49;39.87;;;20.00;;
14681;SDS011;7429;52.498;13.480;2023-12-04T07:45:55;41.53;;;19.93;;
14681;SDS011;7429;52.498;13.480;2023-12-04T07:49:03;43.43;;;21.77;;
14681;SDS011;7429;52.498;13.480;2023-12-04T07:52:06;37.73;;;20.47;;
14681;SDS011;7429;52.498;13.480;2023-12-04T07:55:10;34.23;;;20.23;;
14681;SDS011;7429;52.498;13.480;2023-12-04T07:58:16;39.77;;;20.63;;
14681;SDS011;7429;52.498;13.480;2023-12-04T08:01:21;36.17;;;20.13;;
14681;SDS011;7429;52.498;13.480;2023-12-04T08:04:27;40.70;;;21.17;;
14681;SDS011;7429;52.498;13.480;2023-12-04T08:07:30;37.03;;;20.47;;
14681;SDS011;7429;52.498;13.480;2023-12-04T08:10:33;37.73;;;21.97;;
14681;SDS011;7429;52.498;13.480;2023-12-04T08:13:37;40.73;;;21.97;;
14681;SDS011;7429;52.498;13.480;2023-12-04T08:16:41;35.60;;;20.27;;
14681;SDS011;7429;52.498;13.480;2023-12-04T08:19:49;39.93;;;20.57;;
14681;SDS011;7429;52.498;13.480;2023-12-04T08:22:54;34.73;;;19.33;;
14681;SDS011;7429;52.498;13.480;2023-12-04T08:25:57;37.43;;;20.13;;
14681;SDS011;7429;52.498;13.480;2023-12-04T08:29:02;39.30;;;20.60;;
14681;SDS011;7429;52.498;13.480;2023-12-04T08:32:07;38.57;;;20.60;;
14681;SDS011;7429;52.498;13.480;2023-12-04T08:35:12;37.90;;;19.93;;
14681;SDS011;7429;52.498;13.480;2023-12-04T08:38:16;38.37;;;21.43;;
14681;SDS011;7429;52.498;13.480;2023-12-04T08:41:19;36.43;;;20.37;;
14681;SDS011;7429;52.498;13.480;2023-12-04T08:44:22;40.53;;;21.43;;
14681;SDS011;7429;52.498;13.480;2023-12-04T08:47:26;31.33;;;19.00;;
14681;SDS011;7429;52.498;13.480;2023-12-04T08:50:31;33.23;;;19.83;;
14681;SDS011;7429;52.498;13.480;2023-12-04T08:53:34;34.50;;;19.03;;
14681;SDS011;7429;52.498;13.480;2023-12-04T08:56:41;35.27;;;19.37;;
14681;SDS011;7429;52.498;13.480;2023-12-04T08:59:46;28.47;;;16.90;;
14681;SDS011;7429;52.498;13.480;2023-12-04T09:02:52;34.13;;;19.90;;
14681;SDS011;7429;52.498;13.480;2023-12-04T09:06:10;34.47;;;18.83;;
14681;SDS011;7429;52.498;13.480;2023-12-04T09:09:16;34.97;;;19.80;;
14681;SDS011;7429;52.498;13.480;2023-12-04T09:12:20;36.23;;;18.03;;
14681;SDS011;7429;52.498;13.480;2023-12-04T09:15:26;34.87;;;18.90;;
14681;SDS011;7429;52.498;13.480;2023-12-04T09:18:31;33.97;;;19.03;;
14681;SDS011;7429;52.498;13.480;2023-12-04T09:21:38;31.60;;;18.20;;
14681;SDS011;7429;52.498;13.480;2023-12-04T09:24:45;29.37;;;18.23;;
14681;SDS011;7429;52.498;13.480;2023-12-04T09:27:48;30.73;;;18.37;;
14681;SDS011;7429;52.498;13.480;2023-12-04T09:30:52;30.53;;;16.87;;
14681;SDS011;7429;52.498;13.480;2023-12-04T09:33:55;30.10;;;17.17;;
14681;SDS011;7429;52.498;13.480;2023-12-04T09:36:59;31.77;;;17.97;;
14681;SDS011;7429;52.498;13.480;2023-12-04T09:40:11;30.60;;;17.70;;
14681;SDS011;7429;52.498;13.480;2023-12-04T09:43:15;28.37;;;17.60;;
14681;SDS011;7429;52.498;13.480;2023-12-04T09:46:19;24.87;;;16.70;;
14681;SDS011;7429;52.498;13.480;2023-12-04T09:49:22;30.60;;;16.77;;
14681;SDS011;7429;52.498;13.480;2023-12-04T09:52:27;29.60;;;16.07;;
14681;SDS011;7429;52.498;13.480;2023-12-04T09:55:30;26.40;;;17.40;;
14681;SDS011;7429;52.498;13.480;2023-12-04T09:58:37;24.60;;;15.87;;
14681;SDS011;7429;52.498;13.480;2023-12-04T10:01:42;26.97;;;17.67;;
14681;SDS011;7429;52.498;13.480;2023-12-04T10:04:48;35.73;;;17.13;;
14681;SDS011;7429;52.498;13.480;2023-12-04T10:07:53;26.23;;;15.87;;
14681;SDS011;7429;52.498;13.480;2023-12-04T10:10:56;33.53;;;17.60;;
14681;SDS011;7429;52.498;13.480;2023-12-04T10:14:00;28.63;;;16.63;;
14681;SDS011;7429;52.498;13.480;2023-12-04T10:17:13;26.20;;;16.00;;
14681;SDS011;7429;52.498;13.480;2023-12-04T10:20:17;26.13;;;15.67;;
14681;SDS011;7429;52.498;13.480;2023-12-04T10:23:23;25.53;;;16.27;;
14681;SDS011;7429;52.498;13.480;2023-12-04T10:26:43;24.80;;;16.20;;
14681;SDS011;7429;52.498;13.480;2023-12-04T10:29:53;23.53;;;14.77;;
14681;SDS011;7429;52.498;13.480;2023-12-04T10:33:01;26.43;;;14.97;;
14681;SDS011;7429;52.498;13.480;2023-12-04T10:36:10;22.47;;;13.97;;
14681;SDS011;7429;52.498;13.480;2023-12-04T10:39:15;26.50;;;16.80;;
14681;SDS011;7429;52.498;13.480;2023-12-04T10:42:25;24.90;;;15.33;;
14681;SDS011;7429;52.498;13.480;2023-12-04T10:45:30;28.27;;;14.87;;
14681;SDS011;7429;52.498;13.480;2023-12-04T10:48:36;25.80;;;16.50;;
14681;SDS011;7429;52.498;13.480;2023-12-04T10:51:40;25.10;;;15.77;;
14681;SDS011;7429;52.498;13.480;2023-12-04T10:54:48;22.67;;;15.43;;
14681;SDS011;7429;52.498;13.480;2023-12-04T10:57:52;23.73;;;15.60;;
14681;SDS011;7429;52.498;13.480;2023-12-04T11:00:57;25.40;;;15.13;;
14681;SDS011;7429;52.498;13.480;2023-12-04T11:04:05;24.77;;;15.07;;
14681;SDS011;7429;52.498;13.480;2023-12-04T11:07:13;24.70;;;15.33;;
14681;SDS011;7429;52.498;13.480;2023-12-04T11:10:18;23.63;;;14.97;;
14681;SDS011;7429;52.498;13.480;2023-12-04T11:13:26;23.17;;;14.30;;
14681;SDS011;7429;52.498;13.480;2023-12-04T11:16:33;23.43;;;14.97;;
14681;SDS011;7429;52.498;13.480;2023-12-04T11:19:43;24.87;;;15.50;;
14681;SDS011;7429;52.498;13.480;2023-12-04T11:22:57;23.57;;;14.30;;
14681;SDS011;7429;52.498;13.480;2023-12-04T11:26:02;22.60;;;14.43;;
14681;SDS011;7429;52.498;13.480;2023-12-04T11:29:07;19.77;;;13.90;;
14681;SDS011;7429;52.498;13.480;2023-12-04T11:32:13;20.43;;;13.30;;
14681;SDS011;7429;52.498;13.480;2023-12-04T11:35:18;21.40;;;13.27;;
14681;SDS011;7429;52.498;13.480;2023-12-04T11:38:23;23.03;;;14.60;;
14681;SDS011;7429;52.498;13.480;2023-12-04T11:41:29;21.87;;;14.03;;
14681;SDS011;7429;52.498;13.480;2023-12-04T11:44:33;22.63;;;13.77;;
14681;SDS011;7429;52.498;13.480;2023-12-04T11:47:50;22.00;;;13.80;;
14681;SDS011;7429;52.498;13.480;2023-12-04T11:50:56;21.13;;;13.90;;
14681;SDS011;7429;52.498;13.480;2023-12-04T11:53:59;23.13;;;14.30;;
14681;SDS011;7429;52.498;13.480;2023-12-04T12:00:27;17.73;;;11.87;;
14681;SDS011;7429;52.498;13.480;2023-12-04T12:03:30;18.63;;;12.50;;
14681;SDS011;7429;52.498;13.480;2023-12-04T12:06:35;22.27;;;12.93;;
14681;SDS011;7429;52.498;13.480;2023-12-04T12:09:39;18.77;;;11.60;;
14681;SDS011;7429;52.498;13.480;2023-12-04T12:12:43;21.50;;;13.37;;
14681;SDS011;7429;52.498;13.480;2023-12-04T12:15:47;19.03;;;12.87;;
14681;SDS011;7429;52.498;13.480;2023-12-04T12:18:52;18.07;;;11.73;;
14681;SDS011;7429;52.498;13.480;2023-12-04T12:21:56;22.97;;;14.67;;
14681;SDS011;7429;52.498;13.480;2023-12-04T12:25:00;21.13;;;13.50;;
14681;SDS011;7429;52.498;13.480;2023-12-04T12:28:04;18.00;;;13.17;;
14681;SDS011;7429;52.498;13.480;2023-12-04T12:31:07;24.27;;;14.00;;
14681;SDS011;7429;52.498;13.480;2023-12-04T12:34:11;18.37;;;11.87;;
14681;SDS011;7429;52.498;13.480;2023-12-04T12:37:14;23.60;;;14.20;;
14681;SDS011;7429;52.498;13.480;2023-12-04T12:40:19;21.47;;;13.17;;
14681;SDS011;7429;52.498;13.480;2023-12-04T12:43:24;20.00;;;14.27;;
14681;SDS011;7429;52.498;13.480;2023-12-04T12:46:30;21.37;;;13.87;;
14681;SDS011;7429;52.498;13.480;2023-12-04T12:49:33;19.10;;;13.17;;
14681;SDS011;7429;52.498;13.480;2023-12-04T12:52:42;18.40;;;13.33;;
14681;SDS011;7429;52.498;13.480;2023-12-04T12:55:47;21.50;;;14.47;;
14681;SDS011;7429;52.498;13.480;2023-12-04T12:58:52;19.47;;;13.83;;
14681;SDS011;7429;52.498;13.480;2023-12-04T13:01:56;18.70;;;12.77;;
14681;SDS011;7429;52.498;13.480;2023-12-04T13:05:01;22.47;;;14.47;;
14681;SDS011;7429;52.498;13.480;2023-12-04T13:08:06;19.57;;;14.20;;
14681;SDS011;7429;52.498;13.480;2023-12-04T13:11:09;20.83;;;13.83;;
14681;SDS011;7429;52.498;13.480;2023-12-04T13:14:14;18.70;;;12.67;;
14681;SDS011;7429;52.498;13.480;2023-12-04T13:17:17;17.40;;;12.80;;
14681;SDS011;7429;52.498;13.480;2023-12-04T13:20:20;23.03;;;14.37;;
14681;SDS011;7429;52.498;13.480;2023-12-04T13:23:24;23.87;;;14.20;;
14681;SDS011;7429;52.498;13.480;2023-12-04T13:26:28;22.93;;;13.27;;
14681;SDS011;7429;52.498;13.480;2023-12-04T13:29:34;19.90;;;13.07;;
14681;SDS011;7429;52.498;13.480;2023-12-04T13:32:38;17.57;;;11.73;;
14681;SDS011;7429;52.498;13.480;2023-12-04T13:35:41;19.93;;;13.57;;
14681;SDS011;7429;52.498;13.480;2023-12-04T13:38:45;22.33;;;13.47;;
14681;SDS011;7429;52.498;13.480;2023-12-04T13:41:48;22.37;;;13.67;;
14681;SDS011;7429;52.498;13.480;2023-12-04T13:45:11;23.43;;;14.60;;
14681;SDS011;7429;52.498;13.480;2023-12-04T13:48:14;21.03;;;13.73;;
14681;SDS011;7429;52.498;13.480;2023-12-04T13:51:19;22.17;;;14.10;;
14681;SDS011;7429;52.498;13.480;2023-12-04T13:54:22;19.10;;;12.73;;
14681;SDS011;7429;52.498;13.480;2023-12-04T13:57:37;21.10;;;13.60;;
14681;SDS011;7429;52.498;13.480;2023-12-04T14:00:55;23.00;;;13.60;;
14681;SDS011;7429;52.498;13.480;2023-12-04T14:04:00;21.17;;;14.40;;
14681;SDS011;7429;52.498;13.480;2023-12-04T14:07:04;22.60;;;14.17;;
14681;SDS011;7429;52.498;13.480;2023-12-04T14:10:10;22.30;;;14.73;;
14681;SDS011;7429;52.498;13.480;2023-12-04T14:13:13;20.70;;;15.13;;
14681;SDS011;7429;52.498;13.480;2023-12-04T14:16:18;20.83;;;13.93;;
14681;SDS011;7429;52.498;13.480;2023-12-04T14:19:21;23.63;;;14.23;;
14681;SDS011;7429;52.498;13.480;2023-12-04T14:22:26;23.20;;;14.80;;
14681;SDS011;7429;52.498;13.480;2023-12-04T14:25:29;22.50;;;14.23;;
14681;SDS011;7429;52.498;13.480;2023-12-04T14:28:36;24.37;;;14.80;;
14681;SDS011;7429;52.498;13.480;2023-12-04T14:31:45;31.47;;;16.17;;
14681;SDS011;7429;52.498;13.480;2023-12-04T14:34:50;20.80;;;13.83;;
14681;SDS011;7429;52.498;13.480;2023-12-04T14:37:53;22.57;;;13.80;;
14681;SDS011;7429;52.498;13.480;2023-12-04T14:40:58;22.73;;;14.13;;
14681;SDS011;7429;52.498;13.480;2023-12-04T14:44:01;20.30;;;14.23;;
14681;SDS011;7429;52.498;13.480;2023-12-04T14:47:06;26.17;;;14.70;;
14681;SDS011;7429;52.498;13.480;2023-12-04T14:50:10;24.23;;;13.93;;
14681;SDS011;7429;52.498;13.480;2023-12-04T14:53:13;25.40;;;15.40;;
14681;SDS011;7429;52.498;13.480;2023-12-04T14:56:30;25.77;;;16.90;;
14681;SDS011;7429;52.498;13.480;2023-12-04T14:59:47;25.50;;;15.93;;
14681;SDS011;7429;52.498;13.480;2023-12-04T15:03:08;21.57;;;15.00;;
14681;SDS011;7429;52.498;13.480;2023-12-04T15:06:47;22.63;;;14.90;;
14681;SDS011;7429;52.498;13.480;2023-12-04T15:10:21;28.63;;;16.30;;
14681;SDS011;7429;52.498;13.480;2023-12-04T15:14:20;22.93;;;14.90;;
14681;SDS011;7429;52.498;13.480;2023-12-04T15:18:35;29.07;;;14.90;;
14681;SDS011;7429;52.498;13.480;2023-12-04T15:22:31;25.23;;;14.73;;
14681;SDS011;7429;52.498;13.480;2023-12-04T15:25:45;26.47;;;14.63;;
14681;SDS011;7429;52.498;13.480;2023-12-04T15:28:56;25.30;;;15.07;;
14681;SDS011;7429;52.498;13.480;2023-12-04T15:32:25;21.80;;;14.50;;
14681;SDS011;7429;52.498;13.480;2023-12-04T15:35:38;24.73;;;15.30;;
14681;SDS011;7429;52.498;13.480;2023-12-04T15:38:42;23.37;;;15.57;;
14681;SDS011;7429;52.498;13.480;2023-12-04T15:41:58;25.23;;;15.57;;
14681;SDS011;7429;52.498;13.480;2023-12-04T15:45:01;28.57;;;17.23;;
14681;SDS011;7429;52.498;13.480;2023-12-04T15:48:03;25.00;;;16.30;;
14681;SDS011;7429;52.498;13.480;2023-12-04T15:51:13;25.30;;;16.20;;
14681;SDS011;7429;52.498;13.480;2023-12-04T15:54:16;23.50;;;14.50;;
14681;SDS011;7429;52.498;13.480;2023-12-04T15:57:18;23.47;;;16.20;;
14681;SDS011;7429;52.498;13.480;2023-12-04T16:00:22;25.30;;;15.20;;
14681;SDS011;7429;52.498;13.480;2023-12-04T16:03:26;24.17;;;14.87;;
14681;SDS011;7429;52.498;13.480;2023-12-04T16:06:33;23.13;;;16.10;;
14681;SDS011;7429;52.498;13.480;2023-12-04T16:09:38;28.00;;;15.87;;
14681;SDS011;7429;52.498;13.480;2023-12-04T16:12:41;31.00;;;18.30;;
14681;SDS011;7429;52.498;13.480;2023-12-04T16:15:45;26.97;;;16.93;;
14681;SDS011;7429;52.498;13.480;2023-12-04T16:18:50;29.03;;;17.40;;
14681;SDS011;7429;52.498;13.480;2023-12-04T16:21:54;26.43;;;15.77;;
14681;SDS011;7429;52.498;13.480;2023-12-04T16:24:58;25.13;;;15.87;;
14681;SDS011;7429;52.498;13.480;2023-12-04T16:28:01;26.00;;;16.67;;
14681;SDS011;7429;52.498;13.480;2023-12-04T16:31:14;28.83;;;16.83;;
14681;SDS011;7429;52.498;13.480;2023-12-04T16:34:17;27.37;;;18.00;;
14681;SDS011;7429;52.498;13.480;2023-12-04T16:37:22;26.90;;;17.33;;
14681;SDS011;7429;52.498;13.480;2023-12-04T16:40:25;27.27;;;17.13;;
14681;SDS011;7429;52.498;13.480;2023-12-04T16:43:28;23.77;;;16.90;;
14681;SDS011;7429;52.498;13.480;2023-12-04T16:46:32;27.33;;;16.33;;
14681;SDS011;7429;52.498;13.480;2023-12-04T16:49:35;29.23;;;18.83;;
14681;SDS011;7429;52.498;13.480;2023-12-04T16:52:39;26.80;;;17.20;;
14681;SDS011;7429;52.498;13.480;2023-12-04T16:55:42;28.73;;;15.93;;
14681;SDS011;7429;52.498;13.480;2023-12-04T16:58:45;24.93;;;15.80;;
14681;SDS011;7429;52.498;13.480;2023-12-04T17:01:48;27.87;;;16.30;;
14681;SDS011;7429;52.498;13.480;2023-12-04T17:04:52;23.87;;;15.60;;
14681;SDS011;7429;52.498;13.480;2023-12-04T17:07:57;23.83;;;15.73;;
14681;SDS011;7429;52.498;13.480;2023-12-04T17:11:00;26.27;;;15.63;;
14681;SDS011;7429;52.498;13.480;2023-12-04T17:14:04;23.63;;;15.00;;
14681;SDS011;7429;52.498;13.480;2023-12-04T17:17:07;25.07;;;16.30;;
14681;SDS011;7429;52.498;13.480;2023-12-04T17:20:10;28.90;;;16.03;;
14681;SDS011;7429;52.498;13.480;2023-12-04T17:23:15;23.53;;;15.77;;
14681;SDS011;7429;52.498;13.480;2023-12-04T17:26:18;29.83;;;17.83;;
14681;SDS011;7429;52.498;13.480;2023-12-04T17:29:21;25.27;;;16.37;;
14681;SDS011;7429;52.498;13.480;2023-12-04T17:32:25;24.70;;;16.10;;
14681;SDS011;7429;52.498;13.480;2023-12-04T17:35:29;22.17;;;15.97;;
14681;SDS011;7429;52.498;13.480;2023-12-04T17:38:33;31.07;;;19.30;;
14681;SDS011;7429;52.498;13.480;2023-12-04T17:41:37;28.40;;;17.60;;
14681;SDS011;7429;52.498;13.480;2023-12-04T17:44:42;27.73;;;18.50;;
14681;SDS011;7429;52.498;13.480;2023-12-04T17:47:45;25.57;;;17.27;;
14681;SDS011;7429;52.498;13.480;2023-12-04T17:50:49;25.93;;;17.73;;
14681;SDS011;7429;52.498;13.480;2023-12-04T17:53:57;28.13;;;19.07;;
14681;SDS011;7429;52.498;13.480;2023-12-04T17:57:03;28.60;;;19.37;;
14681;SDS011;7429;52.498;13.480;2023-12-04T18:00:13;25.10;;;15.07;;
14681;SDS011;7429;52.498;13.480;2023-12-04T18:03:22;26.77;;;17.93;;
14681;SDS011;7429;52.498;13.480;2023-12-04T18:06:26;27.40;;;16.73;;
14681;SDS011;7429;52.498;13.480;2023-12-04T18:09:34;26.97;;;17.67;;